sensor_id;sensor_type;location;lat;lon;timestamp;P1;durP1;ratioP1;P2;durP2;ratioP2
36009;SDS011;22076;52.182;5.404;2023-07-29T00:02:18;4.05;;;1.70;;
36009;SDS011;22076;52.182;5.404;2023-07-29T00:04:44;3.78;;;1.77;;
36009;SDS011;22076;52.182;5.404;2023-07-29T00:07:11;2.47;;;1.65;;
36009;SDS011;22076;52.182;5.404;2023-07-29T00:09:37;3.47;;;1.17;;
36009;SDS011;22076;52.182;5.404;2023-07-29T00:12:04;2.15;;;1.10;;
36009;SDS011;22076;52.182;5.404;2023-07-29T00:14:31;3.00;;;1.27;;
36009;SDS011;22076;52.182;5.404;2023-07-29T00:16:57;2.58;;;1.23;;
36009;SDS011;22076;52.182;5.404;2023-07-29T00:19:25;1.48;;;1.38;;
36009;SDS011;22076;52.182;5.404;2023-07-29T00:21:53;2.42;;;1.40;;
36009;SDS011;22076;52.182;5.404;2023-07-29T00:24:20;1.20;;;0.95;;
36009;SDS011;22076;52.182;5.404;2023-07-29T00:26:46;2.40;;;1.27;;
36009;SDS011;22076;52.182;5.404;2023-07-29T00:29:13;2.03;;;1.27;;
36009;SDS011;22076;52.182;5.404;2023-07-29T00:31:40;1.92;;;1.40;;
36009;SDS011;22076;52.182;5.404;2023-07-29T00:34:06;1.58;;;1.10;;
36009;SDS011;22076;52.182;5.404;2023-07-29T00:36:34;1.92;;;1.20;;
36009;SDS011;22076;52.182;5.404;2023-07-29T00:39:01;2.33;;;1.45;;
36009;SDS011;22076;52.182;5.404;2023-07-29T00:41:28;1.38;;;1.10;;
36009;SDS011;22076;52.182;5.404;2023-07-29T00:43:55;4.03;;;1.55;;
36009;SDS011;22076;52.182;5.404;2023-07-29T00:46:21;3.05;;;1.33;;
36009;SDS011;22076;52.182;5.404;2023-07-29T00:48:48;4.25;;;1.58;;
36009;SDS011;22076;52.182;5.404;2023-07-29T00:51:15;3.63;;;2.03;;
36009;SDS011;22076;52.182;5.404;2023-07-29T00:53:43;2.20;;;1.40;;
36009;SDS011;22076;52.182;5.404;2023-07-29T00:56:10;1.55;;;1.27;;
36009;SDS011;22076;52.182;5.404;2023-07-29T00:58:36;3.22;;;0.90;;
36009;SDS011;22076;52.182;5.404;2023-07-29T01:01:03;4.88;;;1.50;;
36009;SDS011;22076;52.182;5.404;2023-07-29T01:03:30;2.17;;;1.15;;
36009;SDS011;22076;52.182;5.404;2023-07-29T01:06:00;2.53;;;1.10;;
36009;SDS011;22076;52.182;5.404;2023-07-29T01:08:45;2.90;;;1.15;;
36009;SDS011;22076;52.182;5.404;2023-07-29T01:11:16;2.30;;;1.38;;
36009;SDS011;22076;52.182;5.404;2023-07-29T01:13:50;1.83;;;1.30;;
36009;SDS011;22076;52.182;5.404;2023-07-29T01:16:23;5.53;;;1.40;;
36009;SDS011;22076;52.182;5.404;2023-07-29T01:18:53;3.17;;;1.23;;
36009;SDS011;22076;52.182;5.404;2023-07-29T01:21:24;6.28;;;1.65;;
36009;SDS011;22076;52.182;5.404;2023-07-29T01:23:53;3.80;;;1.65;;
36009;SDS011;22076;52.182;5.404;2023-07-29T01:26:24;3.47;;;1.50;;
36009;SDS011;22076;52.182;5.404;2023-07-29T01:28:51;5.55;;;1.58;;
36009;SDS011;22076;52.182;5.404;2023-07-29T01:31:19;4.13;;;1.35;;
36009;SDS011;22076;52.182;5.404;2023-07-29T01:33:52;2.55;;;1.40;;
36009;SDS011;22076;52.182;5.404;2023-07-29T01:36:23;2.80;;;1.55;;
36009;SDS011;22076;52.182;5.404;2023-07-29T01:38:55;4.78;;;1.45;;
36009;SDS011;22076;52.182;5.404;2023-07-29T01:41:22;3.20;;;1.63;;
36009;SDS011;22076;52.182;5.404;2023-07-29T01:43:50;7.32;;;2.13;;
36009;SDS011;22076;52.182;5.404;2023-07-29T01:46:18;5.60;;;2.13;;
36009;SDS011;22076;52.182;5.404;2023-07-29T01:48:45;3.17;;;1.75;;
36009;SDS011;22076;52.182;5.404;2023-07-29T01:51:12;6.40;;;2.60;;
36009;SDS011;22076;52.182;5.404;2023-07-29T01:53:38;5.15;;;2.80;;
36009;SDS011;22076;52.182;5.404;2023-07-29T01:56:07;9.07;;;5.70;;
36009;SDS011;22076;52.182;5.404;2023-07-29T01:58:33;11.25;;;6.28;;
36009;SDS011;22076;52.182;5.404;2023-07-29T02:01:00;7.47;;;4.43;;
36009;SDS011;22076;52.182;5.404;2023-07-29T02:03:26;10.30;;;6.38;;
36009;SDS011;22076;52.182;5.404;2023-07-29T02:05:53;5.78;;;3.80;;
36009;SDS011;22076;52.182;5.404;2023-07-29T02:08:19;5.78;;;3.53;;
36009;SDS011;22076;52.182;5.404;2023-07-29T02:10:46;7.95;;;5.10;;
36009;SDS011;22076;52.182;5.404;2023-07-29T02:13:15;8.82;;;3.95;;
36009;SDS011;22076;52.182;5.404;2023-07-29T02:15:41;6.80;;;3.20;;
36009;SDS011;22076;52.182;5.404;2023-07-29T02:18:08;4.90;;;2.67;;
36009;SDS011;22076;52.182;5.404;2023-07-29T02:20:34;5.28;;;3.22;;
36009;SDS011;22076;52.182;5.404;2023-07-29T02:23:02;6.20;;;2.88;;
36009;SDS011;22076;52.182;5.404;2023-07-29T02:25:29;9.32;;;3.42;;
36009;SDS011;22076;52.182;5.404;2023-07-29T02:27:56;9.82;;;3.40;;
36009;SDS011;22076;52.182;5.404;2023-07-29T02:30:24;7.00;;;2.75;;
36009;SDS011;22076;52.182;5.404;2023-07-29T02:32:50;7.88;;;3.50;;
36009;SDS011;22076;52.182;5.404;2023-07-29T02:35:17;7.72;;;3.03;;
36009;SDS011;22076;52.182;5.404;2023-07-29T02:37:44;6.90;;;3.42;;
36009;SDS011;22076;52.182;5.404;2023-07-29T02:40:11;9.23;;;4.05;;
36009;SDS011;22076;52.182;5.404;2023-07-29T02:42:38;7.00;;;3.20;;
36009;SDS011;22076;52.182;5.404;2023-07-29T02:45:05;7.28;;;3.25;;
36009;SDS011;22076;52.182;5.404;2023-07-29T02:47:36;9.55;;;4.45;;
36009;SDS011;22076;52.182;5.404;2023-07-29T02:50:02;10.55;;;4.40;;
36009;SDS011;22076;52.182;5.404;2023-07-29T02:52:29;8.55;;;3.88;;
36009;SDS011;22076;52.182;5.404;2023-07-29T02:54:56;5.47;;;3.08;;
36009;SDS011;22076;52.182;5.404;2023-07-29T02:57:23;9.88;;;3.60;;
36009;SDS011;22076;52.182;5.404;2023-07-29T02:59:49;6.45;;;3.15;;
36009;SDS011;22076;52.182;5.404;2023-07-29T03:02:16;9.40;;;4.13;;
36009;SDS011;22076;52.182;5.404;2023-07-29T03:04:44;7.40;;;2.97;;
36009;SDS011;22076;52.182;5.404;2023-07-29T03:07:10;5.03;;;2.72;;
36009;SDS011;22076;52.182;5.404;2023-07-29T03:09:37;5.38;;;3.17;;
36009;SDS011;22076;52.182;5.404;2023-07-29T03:12:04;5.93;;;3.10;;
36009;SDS011;22076;52.182;5.404;2023-07-29T03:14:31;6.95;;;3.35;;
36009;SDS011;22076;52.182;5.404;2023-07-29T03:16:58;6.55;;;3.53;;
36009;SDS011;22076;52.182;5.404;2023-07-29T03:19:29;4.95;;;2.90;;
36009;SDS011;22076;52.182;5.404;2023-07-29T03:21:57;3.58;;;2.17;;
36009;SDS011;22076;52.182;5.404;2023-07-29T03:24:23;10.93;;;3.00;;
36009;SDS011;22076;52.182;5.404;2023-07-29T03:26:50;6.22;;;2.60;;
36009;SDS011;22076;52.182;5.404;2023-07-29T03:29:17;5.55;;;2.45;;
36009;SDS011;22076;52.182;5.404;2023-07-29T03:31:43;5.60;;;3.22;;
36009;SDS011;22076;52.182;5.404;2023-07-29T03:34:10;4.93;;;3.25;;
36009;SDS011;22076;52.182;5.404;2023-07-29T03:36:37;7.28;;;3.08;;
36009;SDS011;22076;52.182;5.404;2023-07-29T03:39:05;4.50;;;2.15;;
36009;SDS011;22076;52.182;5.404;2023-07-29T03:41:32;4.60;;;2.75;;
36009;SDS011;22076;52.182;5.404;2023-07-29T03:43:59;4.35;;;2.63;;
36009;SDS011;22076;52.182;5.404;2023-07-29T03:46:26;6.45;;;3.80;;
36009;SDS011;22076;52.182;5.404;2023-07-29T03:48:52;4.95;;;2.50;;
36009;SDS011;22076;52.182;5.404;2023-07-29T03:51:19;5.35;;;3.03;;
36009;SDS011;22076;52.182;5.404;2023-07-29T03:53:46;3.75;;;1.80;;
36009;SDS011;22076;52.182;5.404;2023-07-29T03:56:14;5.38;;;2.38;;
36009;SDS011;22076;52.182;5.404;2023-07-29T03:58:42;3.83;;;2.05;;
36009;SDS011;22076;52.182;5.404;2023-07-29T04:01:09;3.38;;;1.67;;
36009;SDS011;22076;52.182;5.404;2023-07-29T04:03:35;6.10;;;2.85;;
36009;SDS011;22076;52.182;5.404;2023-07-29T04:06:02;6.13;;;2.50;;
36009;SDS011;22076;52.182;5.404;2023-07-29T04:08:28;6.90;;;3.33;;
36009;SDS011;22076;52.182;5.404;2023-07-29T04:10:55;3.97;;;2.25;;
36009;SDS011;22076;52.182;5.404;2023-07-29T04:13:23;4.75;;;2.55;;
36009;SDS011;22076;52.182;5.404;2023-07-29T04:15:49;3.28;;;2.00;;
36009;SDS011;22076;52.182;5.404;2023-07-29T04:18:16;4.30;;;2.58;;
36009;SDS011;22076;52.182;5.404;2023-07-29T04:20:42;6.57;;;2.28;;
36009;SDS011;22076;52.182;5.404;2023-07-29T04:23:09;5.05;;;2.47;;
36009;SDS011;22076;52.182;5.404;2023-07-29T04:25:36;4.07;;;2.40;;
36009;SDS011;22076;52.182;5.404;2023-07-29T04:28:03;3.47;;;2.17;;
36009;SDS011;22076;52.182;5.404;2023-07-29T04:30:31;4.63;;;2.88;;
36009;SDS011;22076;52.182;5.404;2023-07-29T04:32:58;3.17;;;2.00;;
36009;SDS011;22076;52.182;5.404;2023-07-29T04:35:24;4.57;;;2.70;;
36009;SDS011;22076;52.182;5.404;2023-07-29T04:37:51;5.32;;;2.50;;
36009;SDS011;22076;52.182;5.404;2023-07-29T04:40:18;3.08;;;1.83;;
36009;SDS011;22076;52.182;5.404;2023-07-29T04:42:44;5.25;;;2.83;;
36009;SDS011;22076;52.182;5.404;2023-07-29T04:45:11;5.43;;;1.70;;
36009;SDS011;22076;52.182;5.404;2023-07-29T04:47:39;3.85;;;1.90;;
36009;SDS011;22076;52.182;5.404;2023-07-29T04:50:06;5.35;;;3.00;;
36009;SDS011;22076;52.182;5.404;2023-07-29T04:52:34;4.93;;;2.60;;
36009;SDS011;22076;52.182;5.404;2023-07-29T04:55:00;3.90;;;2.45;;
36009;SDS011;22076;52.182;5.404;2023-07-29T04:57:33;4.25;;;2.20;;
36009;SDS011;22076;52.182;5.404;2023-07-29T05:00:00;3.15;;;1.92;;
36009;SDS011;22076;52.182;5.404;2023-07-29T05:02:27;4.18;;;2.28;;
36009;SDS011;22076;52.182;5.404;2023-07-29T05:04:56;5.07;;;2.45;;
36009;SDS011;22076;52.182;5.404;2023-07-29T05:07:23;4.85;;;2.17;;
36009;SDS011;22076;52.182;5.404;2023-07-29T05:09:50;4.00;;;2.22;;
36009;SDS011;22076;52.182;5.404;2023-07-29T05:12:16;7.28;;;2.75;;
36009;SDS011;22076;52.182;5.404;2023-07-29T05:14:43;3.33;;;2.20;;
36009;SDS011;22076;52.182;5.404;2023-07-29T05:17:09;2.92;;;1.83;;
36009;SDS011;22076;52.182;5.404;2023-07-29T05:19:36;3.97;;;1.55;;
36009;SDS011;22076;52.182;5.404;2023-07-29T05:22:04;2.50;;;1.27;;
36009;SDS011;22076;52.182;5.404;2023-07-29T05:24:31;5.00;;;1.73;;
36009;SDS011;22076;52.182;5.404;2023-07-29T05:26:58;3.10;;;2.05;;
36009;SDS011;22076;52.182;5.404;2023-07-29T05:29:24;5.07;;;1.77;;
36009;SDS011;22076;52.182;5.404;2023-07-29T05:31:51;3.08;;;1.27;;
36009;SDS011;22076;52.182;5.404;2023-07-29T05:34:18;5.72;;;2.63;;
36009;SDS011;22076;52.182;5.404;2023-07-29T05:36:44;2.95;;;1.92;;
36009;SDS011;22076;52.182;5.404;2023-07-29T05:39:12;2.03;;;1.35;;
36009;SDS011;22076;52.182;5.404;2023-07-29T05:41:39;4.65;;;2.00;;
36009;SDS011;22076;52.182;5.404;2023-07-29T05:44:05;5.85;;;2.58;;
36009;SDS011;22076;52.182;5.404;2023-07-29T05:46:32;2.33;;;1.73;;
36009;SDS011;22076;52.182;5.404;2023-07-29T05:48:58;4.85;;;2.13;;
36009;SDS011;22076;52.182;5.404;2023-07-29T05:51:25;4.05;;;2.58;;
36009;SDS011;22076;52.182;5.404;2023-07-29T05:53:52;4.03;;;2.35;;
36009;SDS011;22076;52.182;5.404;2023-07-29T05:56:20;5.15;;;2.50;;
36009;SDS011;22076;52.182;5.404;2023-07-29T05:58:47;3.95;;;2.13;;
36009;SDS011;22076;52.182;5.404;2023-07-29T06:01:13;4.70;;;1.95;;
36009;SDS011;22076;52.182;5.404;2023-07-29T06:03:40;3.83;;;2.33;;
36009;SDS011;22076;52.182;5.404;2023-07-29T06:06:06;7.72;;;2.95;;
36009;SDS011;22076;52.182;5.404;2023-07-29T06:08:33;4.10;;;3.05;;
36009;SDS011;22076;52.182;5.404;2023-07-29T06:11:00;5.03;;;3.95;;
36009;SDS011;22076;52.182;5.404;2023-07-29T06:13:28;6.22;;;3.33;;
36009;SDS011;22076;52.182;5.404;2023-07-29T06:15:55;3.72;;;2.30;;
36009;SDS011;22076;52.182;5.404;2023-07-29T06:18:21;3.78;;;2.53;;
36009;SDS011;22076;52.182;5.404;2023-07-29T06:20:58;3.20;;;2.22;;
36009;SDS011;22076;52.182;5.404;2023-07-29T06:23:24;7.28;;;3.00;;
36009;SDS011;22076;52.182;5.404;2023-07-29T06:25:51;4.82;;;2.33;;
36009;SDS011;22076;52.182;5.404;2023-07-29T06:28:18;5.05;;;2.90;;
36009;SDS011;22076;52.182;5.404;2023-07-29T06:30:46;7.53;;;3.90;;
36009;SDS011;22076;52.182;5.404;2023-07-29T06:33:13;6.32;;;3.28;;
36009;SDS011;22076;52.182;5.404;2023-07-29T06:35:41;4.93;;;2.70;;
36009;SDS011;22076;52.182;5.404;2023-07-29T06:38:07;4.65;;;2.45;;
36009;SDS011;22076;52.182;5.404;2023-07-29T06:40:34;6.78;;;3.42;;
36009;SDS011;22076;52.182;5.404;2023-07-29T06:43:00;7.00;;;3.30;;
36009;SDS011;22076;52.182;5.404;2023-07-29T06:45:29;11.07;;;3.92;;
36009;SDS011;22076;52.182;5.404;2023-07-29T06:47:57;7.38;;;4.00;;
36009;SDS011;22076;52.182;5.404;2023-07-29T06:50:24;5.50;;;2.90;;
36009;SDS011;22076;52.182;5.404;2023-07-29T06:52:50;6.07;;;3.33;;
36009;SDS011;22076;52.182;5.404;2023-07-29T06:55:17;5.82;;;2.95;;
36009;SDS011;22076;52.182;5.404;2023-07-29T06:57:43;3.70;;;2.30;;
36009;SDS011;22076;52.182;5.404;2023-07-29T07:00:10;5.25;;;2.90;;
36009;SDS011;22076;52.182;5.404;2023-07-29T07:02:37;8.30;;;3.30;;
36009;SDS011;22076;52.182;5.404;2023-07-29T07:05:05;8.32;;;5.10;;
36009;SDS011;22076;52.182;5.404;2023-07-29T07:07:32;7.55;;;4.32;;
36009;SDS011;22076;52.182;5.404;2023-07-29T07:09:58;7.78;;;4.55;;
36009;SDS011;22076;52.182;5.404;2023-07-29T07:12:25;6.30;;;4.10;;
36009;SDS011;22076;52.182;5.404;2023-07-29T07:14:51;8.05;;;3.75;;
36009;SDS011;22076;52.182;5.404;2023-07-29T07:17:18;11.32;;;5.25;;
36009;SDS011;22076;52.182;5.404;2023-07-29T07:19:46;12.25;;;6.10;;
36009;SDS011;22076;52.182;5.404;2023-07-29T07:22:14;8.30;;;4.13;;
36009;SDS011;22076;52.182;5.404;2023-07-29T07:24:40;8.18;;;4.55;;
36009;SDS011;22076;52.182;5.404;2023-07-29T07:27:07;5.70;;;4.47;;
36009;SDS011;22076;52.182;5.404;2023-07-29T07:29:34;5.32;;;3.10;;
36009;SDS011;22076;52.182;5.404;2023-07-29T07:32:00;8.48;;;3.03;;
36009;SDS011;22076;52.182;5.404;2023-07-29T07:34:27;5.90;;;4.40;;
36009;SDS011;22076;52.182;5.404;2023-07-29T07:36:54;5.93;;;3.95;;
36009;SDS011;22076;52.182;5.404;2023-07-29T07:39:22;12.60;;;5.43;;
36009;SDS011;22076;52.182;5.404;2023-07-29T07:41:48;7.95;;;5.13;;
36009;SDS011;22076;52.182;5.404;2023-07-29T07:44:15;7.85;;;5.55;;
36009;SDS011;22076;52.182;5.404;2023-07-29T07:46:43;6.40;;;4.30;;
36009;SDS011;22076;52.182;5.404;2023-07-29T07:49:10;9.52;;;6.03;;
36009;SDS011;22076;52.182;5.404;2023-07-29T07:51:37;8.68;;;4.22;;
36009;SDS011;22076;52.182;5.404;2023-07-29T07:54:04;9.77;;;5.53;;
36009;SDS011;22076;52.182;5.404;2023-07-29T07:56:40;8.60;;;3.88;;
36009;SDS011;22076;52.182;5.404;2023-07-29T07:59:07;6.40;;;4.68;;
36009;SDS011;22076;52.182;5.404;2023-07-29T08:01:34;7.15;;;5.78;;
36009;SDS011;22076;52.182;5.404;2023-07-29T08:04:01;7.63;;;4.88;;
36009;SDS011;22076;52.182;5.404;2023-07-29T08:06:28;9.85;;;5.40;;
36009;SDS011;22076;52.182;5.404;2023-07-29T08:08:55;9.43;;;6.40;;
36009;SDS011;22076;52.182;5.404;2023-07-29T08:11:21;7.45;;;4.72;;
36009;SDS011;22076;52.182;5.404;2023-07-29T08:13:50;4.50;;;3.65;;
36009;SDS011;22076;52.182;5.404;2023-07-29T08:16:17;7.55;;;6.47;;
36009;SDS011;22076;52.182;5.404;2023-07-29T08:18:44;7.53;;;5.10;;
36009;SDS011;22076;52.182;5.404;2023-07-29T08:21:10;8.45;;;5.65;;
36009;SDS011;22076;52.182;5.404;2023-07-29T08:23:37;6.65;;;4.40;;
36009;SDS011;22076;52.182;5.404;2023-07-29T08:26:04;8.18;;;4.30;;
36009;SDS011;22076;52.182;5.404;2023-07-29T08:28:32;7.68;;;3.75;;
36009;SDS011;22076;52.182;5.404;2023-07-29T08:31:00;9.95;;;7.50;;
36009;SDS011;22076;52.182;5.404;2023-07-29T08:33:27;5.88;;;4.00;;
36009;SDS011;22076;52.182;5.404;2023-07-29T08:35:54;4.10;;;3.20;;
36009;SDS011;22076;52.182;5.404;2023-07-29T08:38:21;6.90;;;4.47;;
36009;SDS011;22076;52.182;5.404;2023-07-29T08:40:49;5.22;;;4.40;;
36009;SDS011;22076;52.182;5.404;2023-07-29T08:43:19;7.18;;;3.75;;
36009;SDS011;22076;52.182;5.404;2023-07-29T08:45:46;5.25;;;3.72;;
36009;SDS011;22076;52.182;5.404;2023-07-29T08:48:15;3.92;;;3.17;;
36009;SDS011;22076;52.182;5.404;2023-07-29T08:50:45;7.13;;;3.70;;
36009;SDS011;22076;52.182;5.404;2023-07-29T08:53:12;5.70;;;3.85;;
36009;SDS011;22076;52.182;5.404;2023-07-29T08:55:39;5.07;;;3.40;;
36009;SDS011;22076;52.182;5.404;2023-07-29T08:58:06;6.32;;;3.35;;
36009;SDS011;22076;52.182;5.404;2023-07-29T09:00:34;7.25;;;4.28;;
36009;SDS011;22076;52.182;5.404;2023-07-29T09:03:00;4.47;;;3.58;;
36009;SDS011;22076;52.182;5.404;2023-07-29T09:05:33;4.97;;;3.13;;
36009;SDS011;22076;52.182;5.404;2023-07-29T09:08:01;9.35;;;4.35;;
36009;SDS011;22076;52.182;5.404;2023-07-29T09:10:28;5.45;;;3.33;;
36009;SDS011;22076;52.182;5.404;2023-07-29T09:12:55;8.25;;;4.20;;
36009;SDS011;22076;52.182;5.404;2023-07-29T09:15:28;7.63;;;3.60;;
36009;SDS011;22076;52.182;5.404;2023-07-29T09:17:56;5.82;;;3.47;;
36009;SDS011;22076;52.182;5.404;2023-07-29T09:20:24;4.38;;;2.80;;
36009;SDS011;22076;52.182;5.404;2023-07-29T09:22:52;6.13;;;3.58;;
36009;SDS011;22076;52.182;5.404;2023-07-29T09:25:22;9.20;;;3.58;;
36009;SDS011;22076;52.182;5.404;2023-07-29T09:27:50;6.68;;;3.30;;
36009;SDS011;22076;52.182;5.404;2023-07-29T09:30:16;5.57;;;3.97;;
36009;SDS011;22076;52.182;5.404;2023-07-29T09:32:43;7.35;;;3.75;;
36009;SDS011;22076;52.182;5.404;2023-07-29T09:35:10;3.92;;;3.05;;
36009;SDS011;22076;52.182;5.404;2023-07-29T09:37:37;3.85;;;3.35;;
36009;SDS011;22076;52.182;5.404;2023-07-29T09:40:06;4.95;;;3.72;;
36009;SDS011;22076;52.182;5.404;2023-07-29T09:42:33;7.68;;;3.70;;
36009;SDS011;22076;52.182;5.404;2023-07-29T09:45:00;3.63;;;3.17;;
36009;SDS011;22076;52.182;5.404;2023-07-29T09:47:26;7.90;;;3.78;;
36009;SDS011;22076;52.182;5.404;2023-07-29T09:49:54;4.20;;;3.38;;
36009;SDS011;22076;52.182;5.404;2023-07-29T09:52:21;4.32;;;3.47;;
36009;SDS011;22076;52.182;5.404;2023-07-29T09:54:49;3.30;;;2.80;;
36009;SDS011;22076;52.182;5.404;2023-07-29T09:57:18;5.65;;;3.22;;
36009;SDS011;22076;52.182;5.404;2023-07-29T09:59:52;6.22;;;4.22;;
36009;SDS011;22076;52.182;5.404;2023-07-29T10:02:19;7.55;;;4.05;;
36009;SDS011;22076;52.182;5.404;2023-07-29T10:04:47;4.85;;;3.70;;
36009;SDS011;22076;52.182;5.404;2023-07-29T10:07:14;4.10;;;3.70;;
36009;SDS011;22076;52.182;5.404;2023-07-29T10:09:41;5.82;;;3.90;;
36009;SDS011;22076;52.182;5.404;2023-07-29T10:12:08;6.55;;;3.67;;
36009;SDS011;22076;52.182;5.404;2023-07-29T10:14:38;4.78;;;3.53;;
36009;SDS011;22076;52.182;5.404;2023-07-29T10:17:05;4.28;;;2.95;;
36009;SDS011;22076;52.182;5.404;2023-07-29T10:19:32;4.10;;;3.30;;
36009;SDS011;22076;52.182;5.404;2023-07-29T10:21:59;5.88;;;3.47;;
36009;SDS011;22076;52.182;5.404;2023-07-29T10:24:28;5.60;;;2.70;;
36009;SDS011;22076;52.182;5.404;2023-07-29T10:26:57;8.52;;;3.30;;
36009;SDS011;22076;52.182;5.404;2023-07-29T10:29:24;6.28;;;3.28;;
36009;SDS011;22076;52.182;5.404;2023-07-29T10:31:57;11.98;;;3.67;;
36009;SDS011;22076;52.182;5.404;2023-07-29T10:34:24;5.35;;;3.15;;
36009;SDS011;22076;52.182;5.404;2023-07-29T10:36:51;7.28;;;3.35;;
36009;SDS011;22076;52.182;5.404;2023-07-29T10:39:18;3.70;;;2.85;;
36009;SDS011;22076;52.182;5.404;2023-07-29T10:41:57;5.30;;;4.38;;
36009;SDS011;22076;52.182;5.404;2023-07-29T10:47:18;7.50;;;3.92;;
36009;SDS011;22076;52.182;5.404;2023-07-29T10:49:46;8.95;;;4.57;;
36009;SDS011;22076;52.182;5.404;2023-07-29T10:52:15;10.00;;;4.40;;
36009;SDS011;22076;52.182;5.404;2023-07-29T10:54:43;5.55;;;4.18;;
36009;SDS011;22076;52.182;5.404;2023-07-29T10:57:13;7.63;;;5.20;;
36009;SDS011;22076;52.182;5.404;2023-07-29T10:59:40;7.00;;;4.72;;
36009;SDS011;22076;52.182;5.404;2023-07-29T11:02:15;4.40;;;4.00;;
36009;SDS011;22076;52.182;5.404;2023-07-29T11:04:49;7.00;;;4.70;;
36009;SDS011;22076;52.182;5.404;2023-07-29T11:07:23;5.82;;;4.60;;
36009;SDS011;22076;52.182;5.404;2023-07-29T11:09:53;9.05;;;5.32;;
36009;SDS011;22076;52.182;5.404;2023-07-29T11:12:36;5.38;;;4.18;;
36009;SDS011;22076;52.182;5.404;2023-07-29T11:15:04;6.90;;;5.13;;
36009;SDS011;22076;52.182;5.404;2023-07-29T11:17:41;11.63;;;7.00;;
36009;SDS011;22076;52.182;5.404;2023-07-29T11:20:08;9.82;;;6.93;;
36009;SDS011;22076;52.182;5.404;2023-07-29T11:22:35;6.55;;;4.07;;
36009;SDS011;22076;52.182;5.404;2023-07-29T11:25:03;7.45;;;4.93;;
36009;SDS011;22076;52.182;5.404;2023-07-29T11:27:30;10.85;;;5.32;;
36009;SDS011;22076;52.182;5.404;2023-07-29T11:29:58;3.50;;;3.10;;
36009;SDS011;22076;52.182;5.404;2023-07-29T11:32:25;4.45;;;3.13;;
36009;SDS011;22076;52.182;5.404;2023-07-29T11:34:53;5.70;;;2.53;;
36009;SDS011;22076;52.182;5.404;2023-07-29T11:37:20;4.35;;;2.70;;
36009;SDS011;22076;52.182;5.404;2023-07-29T11:39:46;4.65;;;1.83;;
36009;SDS011;22076;52.182;5.404;2023-07-29T11:42:13;2.50;;;1.90;;
36009;SDS011;22076;52.182;5.404;2023-07-29T11:44:40;5.07;;;2.22;;
36009;SDS011;22076;52.182;5.404;2023-07-29T11:47:07;2.67;;;1.80;;
36009;SDS011;22076;52.182;5.404;2023-07-29T11:49:34;4.00;;;1.90;;
36009;SDS011;22076;52.182;5.404;2023-07-29T11:52:03;2.47;;;1.60;;
36009;SDS011;22076;52.182;5.404;2023-07-29T11:54:30;2.13;;;1.70;;
36009;SDS011;22076;52.182;5.404;2023-07-29T11:56:56;3.92;;;1.83;;
36009;SDS011;22076;52.182;5.404;2023-07-29T11:59:23;1.75;;;1.42;;
36009;SDS011;22076;52.182;5.404;2023-07-29T12:01:49;1.50;;;1.27;;
36009;SDS011;22076;52.182;5.404;2023-07-29T12:04:16;4.10;;;1.95;;
36009;SDS011;22076;52.182;5.404;2023-07-29T12:06:43;4.30;;;1.98;;
36009;SDS011;22076;52.182;5.404;2023-07-29T12:09:11;1.67;;;1.48;;
36009;SDS011;22076;52.182;5.404;2023-07-29T12:11:38;1.88;;;1.60;;
36009;SDS011;22076;52.182;5.404;2023-07-29T12:14:06;2.60;;;2.00;;
36009;SDS011;22076;52.182;5.404;2023-07-29T12:16:39;1.67;;;1.58;;
36009;SDS011;22076;52.182;5.404;2023-07-29T12:19:07;3.03;;;2.10;;
36009;SDS011;22076;52.182;5.404;2023-07-29T12:21:33;3.28;;;1.90;;
36009;SDS011;22076;52.182;5.404;2023-07-29T12:24:01;2.97;;;2.08;;
36009;SDS011;22076;52.182;5.404;2023-07-29T12:26:30;1.77;;;1.50;;
36009;SDS011;22076;52.182;5.404;2023-07-29T12:28:56;2.60;;;1.65;;
36009;SDS011;22076;52.182;5.404;2023-07-29T12:31:28;2.33;;;1.73;;
36009;SDS011;22076;52.182;5.404;2023-07-29T12:33:57;1.55;;;1.38;;
36009;SDS011;22076;52.182;5.404;2023-07-29T12:36:27;2.25;;;1.45;;
36009;SDS011;22076;52.182;5.404;2023-07-29T12:38:53;2.25;;;1.40;;
36009;SDS011;22076;52.182;5.404;2023-07-29T12:41:20;1.30;;;1.17;;
36009;SDS011;22076;52.182;5.404;2023-07-29T12:43:48;2.95;;;1.70;;
36009;SDS011;22076;52.182;5.404;2023-07-29T12:46:15;2.03;;;1.42;;
36009;SDS011;22076;52.182;5.404;2023-07-29T12:48:41;2.28;;;1.67;;
36009;SDS011;22076;52.182;5.404;2023-07-29T12:51:08;2.72;;;1.60;;
36009;SDS011;22076;52.182;5.404;2023-07-29T12:53:35;2.28;;;1.88;;
36009;SDS011;22076;52.182;5.404;2023-07-29T12:56:02;3.53;;;2.20;;
36009;SDS011;22076;52.182;5.404;2023-07-29T12:58:29;2.40;;;1.80;;
36009;SDS011;22076;52.182;5.404;2023-07-29T13:00:57;1.67;;;1.40;;
36009;SDS011;22076;52.182;5.404;2023-07-29T13:03:23;2.70;;;1.65;;
36009;SDS011;22076;52.182;5.404;2023-07-29T13:05:50;2.83;;;2.10;;
36009;SDS011;22076;52.182;5.404;2023-07-29T13:08:18;4.20;;;2.88;;
36009;SDS011;22076;52.182;5.404;2023-07-29T13:10:44;2.17;;;1.70;;
36009;SDS011;22076;52.182;5.404;2023-07-29T13:13:11;3.92;;;2.10;;
36009;SDS011;22076;52.182;5.404;2023-07-29T13:15:37;4.07;;;2.20;;
36009;SDS011;22076;52.182;5.404;2023-07-29T13:18:05;2.53;;;1.88;;
36009;SDS011;22076;52.182;5.404;2023-07-29T13:20:32;2.40;;;1.77;;
36009;SDS011;22076;52.182;5.404;2023-07-29T13:22:59;3.25;;;1.98;;
36009;SDS011;22076;52.182;5.404;2023-07-29T13:25:26;2.42;;;1.88;;
36009;SDS011;22076;52.182;5.404;2023-07-29T13:27:53;3.55;;;2.08;;
36009;SDS011;22076;52.182;5.404;2023-07-29T13:30:19;2.45;;;1.92;;
36009;SDS011;22076;52.182;5.404;2023-07-29T13:32:46;2.70;;;1.90;;
36009;SDS011;22076;52.182;5.404;2023-07-29T13:35:14;2.88;;;1.92;;
36009;SDS011;22076;52.182;5.404;2023-07-29T13:37:41;2.95;;;1.73;;
36009;SDS011;22076;52.182;5.404;2023-07-29T13:40:07;3.97;;;2.30;;
36009;SDS011;22076;52.182;5.404;2023-07-29T13:42:34;1.98;;;1.75;;
36009;SDS011;22076;52.182;5.404;2023-07-29T13:45:01;2.75;;;1.80;;
36009;SDS011;22076;52.182;5.404;2023-07-29T13:47:29;2.83;;;2.53;;
36009;SDS011;22076;52.182;5.404;2023-07-29T13:49:55;2.70;;;2.20;;
36009;SDS011;22076;52.182;5.404;2023-07-29T13:52:23;3.50;;;2.80;;
36009;SDS011;22076;52.182;5.404;2023-07-29T13:54:50;3.20;;;2.90;;
36009;SDS011;22076;52.182;5.404;2023-07-29T13:57:16;2.25;;;1.98;;
36009;SDS011;22076;52.182;5.404;2023-07-29T13:59:43;5.85;;;5.38;;
36009;SDS011;22076;52.182;5.404;2023-07-29T14:02:10;3.55;;;3.25;;
36009;SDS011;22076;52.182;5.404;2023-07-29T14:04:36;5.03;;;3.42;;
36009;SDS011;22076;52.182;5.404;2023-07-29T14:07:03;4.13;;;2.20;;
36009;SDS011;22076;52.182;5.404;2023-07-29T14:09:31;2.78;;;2.30;;
36009;SDS011;22076;52.182;5.404;2023-07-29T14:11:58;3.17;;;2.30;;
36009;SDS011;22076;52.182;5.404;2023-07-29T14:14:24;3.42;;;2.80;;
36009;SDS011;22076;52.182;5.404;2023-07-29T14:16:51;2.95;;;2.28;;
36009;SDS011;22076;52.182;5.404;2023-07-29T14:19:17;2.33;;;2.00;;
36009;SDS011;22076;52.182;5.404;2023-07-29T14:21:44;3.92;;;2.20;;
36009;SDS011;22076;52.182;5.404;2023-07-29T14:24:11;2.83;;;2.22;;
36009;SDS011;22076;52.182;5.404;2023-07-29T14:26:38;3.15;;;2.17;;
36009;SDS011;22076;52.182;5.404;2023-07-29T14:29:05;2.30;;;1.58;;
36009;SDS011;22076;52.182;5.404;2023-07-29T14:31:32;2.47;;;1.70;;
36009;SDS011;22076;52.182;5.404;2023-07-29T14:33:58;3.88;;;1.80;;
36009;SDS011;22076;52.182;5.404;2023-07-29T14:36:25;5.63;;;1.73;;
36009;SDS011;22076;52.182;5.404;2023-07-29T14:38:52;5.20;;;2.15;;
36009;SDS011;22076;52.182;5.404;2023-07-29T14:41:18;2.22;;;1.70;;
36009;SDS011;22076;52.182;5.404;2023-07-29T14:43:46;2.28;;;1.58;;
36009;SDS011;22076;52.182;5.404;2023-07-29T14:46:13;1.75;;;1.48;;
36009;SDS011;22076;52.182;5.404;2023-07-29T14:48:40;4.15;;;1.40;;
36009;SDS011;22076;52.182;5.404;2023-07-29T14:51:06;2.92;;;1.65;;
36009;SDS011;22076;52.182;5.404;2023-07-29T14:53:33;1.80;;;1.40;;